createdAt,value
2022-09-11T00:01:48.355Z,100057.65
2022-09-11T00:04:16.240Z,100054.38
2022-09-11T00:06:44.362Z,100054.14
2022-09-11T00:09:12.912Z,100043.93
2022-09-11T00:11:42.580Z,100001.65
2022-09-11T00:14:14.178Z,100056.38
2022-09-11T00:16:45.398Z,100052.88
2022-09-11T00:19:19.131Z,100012.55
2022-09-11T00:21:50.039Z,100052.52
2022-09-11T00:24:18.182Z,100036.06
2022-09-11T00:26:47.725Z,100050.05
2022-09-11T00:29:15.928Z,100047.61
2022-09-11T00:31:44.170Z,100033.34
2022-09-11T00:34:12.600Z,100044.50
2022-09-11T00:36:44.408Z,100046.50
2022-09-11T00:39:14.433Z,100025.72
2022-09-11T00:41:46.760Z,100039.67
2022-09-11T00:44:18.335Z,100035.45
2022-09-11T00:46:50.705Z,100029.66
2022-09-11T00:49:21.567Z,100027.70
2022-09-11T00:52:01.094Z,100025.71
2022-09-11T00:54:33.787Z,100022.79
2022-09-11T00:57:06.655Z,100020.89
2022-09-11T00:59:38.390Z,100017.09
2022-09-11T01:02:13.931Z,100015.94
2022-09-11T01:04:41.898Z,100013.88
2022-09-11T01:07:13.053Z,100012.14
2022-09-11T01:09:42.699Z,100012.44
2022-09-11T01:12:19.966Z,100009.01
2022-09-11T01:15:11.265Z,100009.09
2022-09-11T01:18:02.687Z,100010.30
2022-09-11T01:21:13.733Z,100008.96
2022-09-11T01:24:19.588Z,100006.75
2022-09-11T01:27:08.890Z,100001.66
2022-09-11T01:29:49.149Z,100004.48
2022-09-11T01:32:25.307Z,100001.63
2022-09-11T01:35:01.152Z,99997.52
2022-09-11T01:37:52.915Z,99997.13
2022-09-11T01:40:27.379Z,99970.49
2022-09-11T01:43:06.302Z,99993.55
2022-09-11T01:45:37.362Z,99974.91
2022-09-11T01:48:07.918Z,99989.98
2022-09-11T01:50:40.517Z,99990.14
2022-09-11T01:53:09.984Z,99985.92
2022-09-11T01:55:43.714Z,99982.45
2022-09-11T01:58:26.941Z,99978.73
2022-09-11T02:01:16.626Z,99981.14
2022-09-11T02:03:51.499Z,99982.59
2022-09-11T02:06:35.279Z,99957.13
2022-09-11T02:09:08.670Z,99982.74
2022-09-11T02:11:43.652Z,99984.30
2022-09-11T02:14:30.005Z,99982.88
2022-09-11T02:16:57.924Z,99982.94
2022-09-11T02:19:29.850Z,99984.55
2022-09-11T02:21:59.653Z,99986.36
2022-09-11T02:24:28.237Z,99985.95
2022-09-11T02:27:02.171Z,99985.02
2022-09-11T02:29:32.528Z,99983.80
2022-09-11T02:32:02.013Z,99975.63
2022-09-11T02:34:37.397Z,99982.77
2022-09-11T02:37:25.537Z,99980.63
2022-09-11T02:40:20.199Z,99964.06
2022-09-11T02:43:09.238Z,99959.27
2022-09-11T02:45:54.391Z,99977.23
2022-09-11T02:48:51.754Z,99972.54
2022-09-11T02:51:37.142Z,99970.77
2022-09-11T02:54:27.708Z,99975.53
2022-09-11T02:57:06.903Z,99974.69
2022-09-11T03:00:07.133Z,99975.44
2022-09-11T03:02:39.790Z,99973.79
2022-09-11T03:05:09.233Z,99972.50
2022-09-11T03:07:37.354Z,99967.23
2022-09-11T03:10:05.925Z,99969.10
2022-09-11T03:12:36.666Z,99965.70
2022-09-11T03:15:06.046Z,99975.80
2022-09-11T03:17:34.079Z,99974.78
2022-09-11T03:20:04.698Z,99973.27
2022-09-11T03:22:32.704Z,99971.36
2022-09-11T03:25:00.564Z,99969.70
2022-09-11T03:27:29.765Z,99966.29
2022-09-11T03:29:59.219Z,99969.51
2022-09-11T03:32:27.530Z,99964.55
2022-09-11T03:34:56.950Z,99967.44
2022-09-11T03:37:26.523Z,99962.73
2022-09-11T03:39:55.062Z,99964.39
2022-09-11T03:42:23.223Z,99969.85
2022-09-11T03:44:51.765Z,99971.83
2022-09-11T03:47:22.572Z,99965.72
2022-09-11T03:49:50.785Z,99967.05
2022-09-11T03:52:18.765Z,99966.58
2022-09-11T03:54:48.027Z,99968.30
2022-09-11T03:57:16.180Z,99967.95
2022-09-11T03:59:44.241Z,99964.71
2022-09-11T04:02:12.773Z,99968.16
2022-09-11T04:04:41.491Z,99968.11
2022-09-11T04:07:09.848Z,99966.53
2022-09-11T04:09:39.500Z,99940.11
2022-09-11T04:12:07.575Z,99967.95
2022-09-11T04:14:35.550Z,99969.66
2022-09-11T04:17:04.167Z,99968.07
2022-09-11T04:19:32.318Z,99965.77
2022-09-11T04:22:00.561Z,99966.00
2022-09-11T04:24:28.933Z,99962.58
2022-09-11T04:27:00.978Z,99936.38
2022-09-11T04:29:31.191Z,99964.91
2022-09-11T04:32:00.477Z,99962.02
2022-09-11T04:34:30.808Z,99960.68
2022-09-11T04:36:59.487Z,99960.29
2022-09-11T04:39:30.849Z,99960.91
2022-09-11T04:41:58.994Z,99960.63
2022-09-11T04:44:28.347Z,99956.24
2022-09-11T04:46:56.789Z,99958.12
2022-09-11T04:49:25.581Z,99958.65
2022-09-11T04:51:53.875Z,99953.84
2022-09-11T04:54:24.080Z,99949.31
2022-09-11T04:56:53.691Z,99951.03
2022-09-11T04:59:23.691Z,99955.16
2022-09-11T05:02:03.364Z,99952.71
2022-09-11T05:04:31.621Z,99954.73
2022-09-11T05:07:02.874Z,99939.52
2022-09-11T05:09:31.452Z,99951.56
2022-09-11T05:11:59.479Z,99950.38
2022-09-11T05:14:32.920Z,99949.91
2022-09-11T05:17:02.935Z,99946.68
2022-09-11T05:19:31.519Z,99945.19
2022-09-11T05:22:03.511Z,99943.83
2022-09-11T05:24:32.263Z,99943.84
2022-09-11T05:27:00.177Z,99941.30
2022-09-11T05:29:32.445Z,99945.77
2022-09-11T05:32:04.251Z,99948.94
2022-09-11T05:34:33.000Z,99950.16
2022-09-11T05:37:02.392Z,99951.34
2022-09-11T05:39:32.033Z,99950.84
2022-09-11T05:42:01.878Z,99950.17
2022-09-11T05:44:31.891Z,99948.55
2022-09-11T05:47:00.132Z,99948.64
2022-09-11T05:49:28.253Z,99947.61
2022-09-11T05:51:58.261Z,99948.86
2022-09-11T05:54:27.281Z,99947.97
2022-09-11T05:56:55.669Z,99943.23
2022-09-11T05:59:27.248Z,99948.34
2022-09-11T06:01:57.104Z,99946.85
2022-09-11T06:04:36.784Z,99951.02
2022-09-11T06:07:05.019Z,99951.07
2022-09-11T06:09:33.160Z,99954.48
2022-09-11T06:12:08.753Z,99955.48
2022-09-11T06:14:36.739Z,99950.84
2022-09-11T06:17:06.562Z,99958.94
2022-09-11T06:19:34.517Z,99960.90
2022-09-11T06:22:04.573Z,99960.04
2022-09-11T06:24:36.912Z,99955.57
2022-09-11T06:27:06.134Z,99959.40
2022-09-11T06:29:35.093Z,99959.32
2022-09-11T06:32:04.037Z,99941.11
2022-09-11T06:34:33.628Z,99955.98
2022-09-11T06:37:05.300Z,99952.22
2022-09-11T06:39:34.512Z,99952.95
2022-09-11T06:42:02.965Z,99952.09
2022-09-11T06:44:34.251Z,99949.10
2022-09-11T06:47:02.646Z,99954.10
2022-09-11T06:49:32.307Z,99950.64
2022-09-11T06:52:28.443Z,99952.80
2022-09-11T06:55:13.749Z,99950.23
2022-09-11T06:57:46.365Z,99948.83
2022-09-11T07:00:16.114Z,99951.69
2022-09-11T07:02:45.535Z,99952.64
2022-09-11T07:05:15.520Z,99953.67
2022-09-11T07:07:44.888Z,99954.29
2022-09-11T07:10:12.855Z,99956.45
2022-09-11T07:12:43.447Z,99953.58
2022-09-11T07:15:11.826Z,99957.77
2022-09-11T07:17:40.082Z,99959.02
2022-09-11T07:20:09.573Z,99958.83
2022-09-11T07:22:38.801Z,99958.88
2022-09-11T07:25:08.253Z,99950.20
2022-09-11T07:27:39.129Z,99952.91
2022-09-11T07:30:08.678Z,99949.09
2022-09-11T07:32:38.887Z,99952.31
2022-09-11T07:35:07.771Z,99952.50
2022-09-11T07:37:36.161Z,99950.79
2022-09-11T07:40:05.229Z,99929.23
2022-09-11T07:42:34.304Z,99949.51
2022-09-11T07:45:03.014Z,99952.65
2022-09-11T07:47:33.978Z,99951.46
2022-09-11T07:50:02.593Z,99950.12
2022-09-11T07:52:31.940Z,99949.42
2022-09-11T07:55:04.150Z,99947.15
2022-09-11T07:57:34.549Z,99950.15
2022-09-11T08:00:05.282Z,99955.46
2022-09-11T08:02:48.827Z,99941.90
2022-09-11T08:05:21.066Z,99956.50
2022-09-11T08:07:49.499Z,99960.00
2022-09-11T08:10:27.189Z,99958.45
2022-09-11T08:12:59.880Z,99959.30
2022-09-11T08:15:32.691Z,99960.50
2022-09-11T08:18:02.136Z,99962.19
2022-09-11T08:20:31.251Z,99959.73
2022-09-11T08:22:59.137Z,99963.08
2022-09-11T08:25:29.351Z,99963.88
2022-09-11T08:27:58.198Z,99969.70
2022-09-11T08:30:26.929Z,99965.73
2022-09-11T08:32:55.352Z,99963.17
2022-09-11T08:35:23.530Z,99963.77
2022-09-11T08:37:55.317Z,99969.86
2022-09-11T08:40:23.932Z,99934.04
2022-09-11T08:42:54.801Z,99964.39
2022-09-11T08:45:29.044Z,99968.46
2022-09-11T08:47:58.645Z,99968.68
2022-09-11T08:50:31.863Z,99969.05
2022-09-11T08:53:03.189Z,99972.13
2022-09-11T08:55:39.714Z,99967.30
2022-09-11T08:58:22.081Z,99970.81
2022-09-11T09:01:28.750Z,99970.95
2022-09-11T09:04:10.825Z,99971.17
2022-09-11T09:07:18.667Z,99972.49
2022-09-11T09:10:03.598Z,99977.65
2022-09-11T09:13:05.800Z,99974.45
2022-09-11T09:15:58.343Z,99976.30
2022-09-11T09:18:42.105Z,99973.52
2022-09-11T09:21:31.529Z,99973.11
2022-09-11T09:24:05.926Z,99973.11
2022-09-11T09:26:40.613Z,99976.57
2022-09-11T09:29:20.327Z,99975.96
2022-09-11T09:31:55.165Z,99978.29
2022-09-11T09:34:27.968Z,99976.92
2022-09-11T09:37:04.500Z,99978.04
2022-09-11T09:39:34.345Z,99980.23
2022-09-11T09:42:26.324Z,99958.44
2022-09-11T09:45:14.589Z,99987.05
2022-09-11T09:47:47.922Z,99989.31
2022-09-11T09:50:27.897Z,99994.66
2022-09-11T09:53:20.382Z,99975.41
2022-09-11T09:55:49.341Z,100007.13
2022-09-11T09:58:18.355Z,100012.71
2022-09-11T10:00:46.200Z,100012.88
2022-09-11T10:03:22.863Z,100012.99
2022-09-11T10:05:54.598Z,100014.39
2022-09-11T10:08:26.779Z,100011.49
2022-09-11T10:10:58.324Z,100012.91
2022-09-11T10:13:29.202Z,100008.20
2022-09-11T10:16:00.830Z,99988.35
2022-09-11T10:18:43.021Z,99991.94
2022-09-11T10:21:37.534Z,100006.60
2022-09-11T10:24:17.986Z,100004.91
2022-09-11T10:26:51.084Z,100005.42
2022-09-11T10:29:24.347Z,100002.60
2022-09-11T10:31:55.668Z,100002.23
2022-09-11T10:34:27.282Z,99998.00
2022-09-11T10:36:56.567Z,99996.83
2022-09-11T10:39:27.536Z,99994.24
2022-09-11T10:42:00.744Z,99990.29
2022-09-11T10:44:30.935Z,99991.45
2022-09-11T10:47:23.453Z,99993.37
2022-09-11T10:50:19.099Z,99990.33
2022-09-11T10:52:53.236Z,99994.91
2022-09-11T10:55:23.508Z,99991.88
2022-09-11T10:57:59.713Z,99991.85
2022-09-11T11:00:30.650Z,99989.80
2022-09-11T11:03:12.840Z,99987.89
2022-09-11T11:05:56.464Z,99986.70
2022-09-11T11:08:27.916Z,99981.86
2022-09-11T11:11:18.594Z,99980.13
2022-09-11T11:14:21.553Z,99979.58
2022-09-11T11:17:10.098Z,99979.40
2022-09-11T11:20:03.901Z,99976.43
2022-09-11T11:23:02.138Z,99968.73
2022-09-11T11:26:04.719Z,99960.02
2022-09-11T11:29:16.525Z,99959.91
2022-09-11T11:32:01.550Z,99967.62
2022-09-11T11:35:07.312Z,99966.67
2022-09-11T11:37:50.365Z,99951.83
2022-09-11T11:40:43.120Z,99962.75
2022-09-11T11:43:14.252Z,99928.78
2022-09-11T11:45:55.988Z,99950.84
2022-09-11T11:48:44.651Z,99948.56
2022-09-11T11:51:18.300Z,99943.75
2022-09-11T11:54:26.601Z,99957.48
2022-09-11T11:57:17.214Z,99959.55
2022-09-11T12:00:11.664Z,99956.16
2022-09-11T12:02:51.434Z,99953.45
2022-09-11T12:05:27.111Z,99953.61
2022-09-11T12:07:55.170Z,99957.70
2022-09-11T12:10:38.163Z,99957.36
2022-09-11T12:13:13.573Z,99955.56
2022-09-11T12:16:02.801Z,99961.07
2022-09-11T12:18:31.890Z,99957.80
2022-09-11T12:21:24.733Z,99960.05
2022-09-11T12:24:00.098Z,99959.88
2022-09-11T12:26:32.254Z,99956.44
2022-09-11T12:29:13.179Z,99955.98
2022-09-11T12:31:51.765Z,99959.28
2022-09-11T12:34:38.466Z,99957.59
2022-09-11T12:37:20.484Z,99957.07
2022-09-11T12:40:01.078Z,99957.89
2022-09-11T12:42:29.704Z,99954.38
2022-09-11T12:44:59.840Z,99950.49
2022-09-11T12:47:35.027Z,99928.75
2022-09-11T12:50:18.679Z,99945.47
2022-09-11T12:52:51.879Z,99929.19
2022-09-11T12:55:29.767Z,99948.73
2022-09-11T12:58:03.875Z,99950.00
2022-09-11T13:00:44.351Z,99946.95
2022-09-11T13:03:28.479Z,99948.00
2022-09-11T13:06:03.432Z,99946.62
2022-09-11T13:08:37.598Z,99950.48
2022-09-11T13:11:34.297Z,99946.83
2022-09-11T13:14:02.680Z,99948.50
2022-09-11T13:16:34.816Z,99949.11
2022-09-11T13:19:19.619Z,99925.98
2022-09-11T13:21:52.103Z,99946.72
2022-09-11T13:24:30.481Z,99946.61
2022-09-11T13:27:13.504Z,99942.42
2022-09-11T13:29:43.087Z,99944.85
2022-09-11T13:32:15.543Z,99943.57
2022-09-11T13:34:46.529Z,99945.60
2022-09-11T13:37:39.322Z,99949.05
2022-09-11T13:40:19.286Z,99950.11
2022-09-11T13:42:49.036Z,99943.29
2022-09-11T13:45:20.333Z,99939.94
2022-09-11T13:47:48.393Z,99940.05
2022-09-11T13:50:18.216Z,99932.45
2022-09-11T13:52:47.264Z,99930.56
2022-09-11T13:55:19.477Z,99930.58
2022-09-11T13:58:01.075Z,99929.73
2022-09-11T14:00:44.653Z,99933.34
2022-09-11T14:03:16.388Z,99932.23
2022-09-11T14:06:19.539Z,99930.10
2022-09-11T14:08:54.799Z,99933.21
2022-09-11T14:11:28.354Z,99933.31
2022-09-11T14:14:01.692Z,99939.00
2022-09-11T14:16:37.663Z,99935.05
2022-09-11T14:19:15.696Z,99934.61
2022-09-11T14:21:47.308Z,99932.48
2022-09-11T14:24:26.351Z,99933.98
2022-09-11T14:26:58.507Z,99934.20
2022-09-11T14:29:31.783Z,99936.86
2022-09-11T14:32:29.419Z,99940.47
2022-09-11T14:34:58.426Z,99938.97
2022-09-11T14:37:28.773Z,99940.23
2022-09-11T14:40:00.511Z,99926.80
2022-09-11T14:42:31.758Z,99942.71
2022-09-11T14:45:00.295Z,99939.73
2022-09-11T14:47:39.684Z,99938.53
2022-09-11T14:50:12.332Z,99939.84
2022-09-11T14:52:42.603Z,99940.77
2022-09-11T14:55:15.723Z,99922.90
2022-09-11T14:57:46.698Z,99940.77
2022-09-11T15:00:19.405Z,99946.20
2022-09-11T15:02:47.973Z,99950.63
2022-09-11T15:05:19.517Z,99950.42
2022-09-11T15:07:49.191Z,99955.61
2022-09-11T15:10:17.198Z,99951.76
2022-09-11T15:12:45.508Z,99957.48
2022-09-11T15:15:17.969Z,99958.21
2022-09-11T15:17:46.388Z,99960.55
2022-09-11T15:20:14.367Z,99960.91
2022-09-11T15:22:42.356Z,99956.14
2022-09-11T15:25:11.444Z,99956.41
2022-09-11T15:27:39.284Z,99960.73
2022-09-11T15:30:07.620Z,99967.08
2022-09-11T15:32:35.618Z,99965.55
2022-09-11T15:35:05.501Z,99977.05
2022-09-11T15:37:33.852Z,99982.64
2022-09-11T15:40:02.190Z,99982.54
2022-09-11T15:42:32.508Z,99984.86
2022-09-11T15:45:02.617Z,99994.16
2022-09-11T15:47:31.594Z,99991.90
2022-09-11T15:50:00.411Z,100001.33
2022-09-11T15:52:30.076Z,100008.00
2022-09-11T15:54:58.097Z,100006.80
2022-09-11T15:57:25.972Z,100010.31
2022-09-11T15:59:53.928Z,100011.34
2022-09-11T16:02:23.961Z,100014.97
2022-09-11T16:04:53.933Z,100015.77
2022-09-11T16:07:22.588Z,100022.25
2022-09-11T16:09:51.365Z,100022.26
2022-09-11T16:12:19.330Z,100021.98
2022-09-11T16:14:48.402Z,100028.23
2022-09-11T16:17:20.692Z,100028.37
2022-09-11T16:19:48.874Z,100032.08
2022-09-11T16:22:16.866Z,100035.38
2022-09-11T16:24:44.856Z,100033.73
2022-09-11T16:27:13.965Z,100035.54
2022-09-11T16:30:20.235Z,100034.81
2022-09-11T16:32:35.789Z,100029.63
2022-09-11T16:35:04.227Z,100034.66
2022-09-11T16:37:33.451Z,100019.92
2022-09-11T16:40:02.906Z,100033.92
2022-09-11T16:42:32.095Z,100031.64
2022-09-11T16:44:59.907Z,100030.24
2022-09-11T16:47:30.561Z,100031.36
2022-09-11T16:50:07.356Z,100030.28
2022-09-11T16:52:36.670Z,100034.54
2022-09-11T16:55:08.035Z,100033.31
2022-09-11T16:57:35.960Z,100035.00
2022-09-11T17:00:08.915Z,100033.98
2022-09-11T17:02:38.088Z,100038.00
2022-09-11T17:05:08.211Z,100037.77
2022-09-11T17:07:36.079Z,100039.36
2022-09-11T17:10:04.378Z,100040.70
2022-09-11T17:12:32.689Z,100048.38
2022-09-11T17:15:03.249Z,100049.10
2022-09-11T17:17:31.838Z,100052.05
2022-09-11T17:19:59.809Z,100055.86
2022-09-11T17:22:29.818Z,100054.98
2022-09-11T17:24:57.839Z,100058.20
2022-09-11T17:27:25.901Z,100054.32
2022-09-11T17:29:53.759Z,100061.91
2022-09-11T17:32:28.319Z,100061.35
2022-09-11T17:34:59.057Z,100063.23
2022-09-11T17:37:29.247Z,100066.16
2022-09-11T17:39:58.649Z,100070.28
2022-09-11T17:42:27.764Z,100068.94
2022-09-11T17:44:56.771Z,100073.00
2022-09-11T17:47:26.070Z,100071.69
2022-09-11T17:49:53.929Z,100070.95
2022-09-11T17:52:22.244Z,100075.22
2022-09-11T17:54:51.691Z,100073.70
2022-09-11T17:57:19.838Z,100078.38
2022-09-11T17:59:50.181Z,100082.92
2022-09-11T18:02:18.869Z,100082.79
2022-09-11T18:04:47.862Z,100064.50
2022-09-11T18:07:17.059Z,100080.48
2022-09-11T18:09:45.838Z,100081.00
2022-09-11T18:12:14.707Z,100082.98
2022-09-11T18:14:43.769Z,100080.27
2022-09-11T18:17:12.102Z,100081.20
2022-09-11T18:19:39.968Z,100064.88
2022-09-11T18:22:09.859Z,100083.52
2022-09-11T18:24:39.918Z,100083.15
2022-09-11T18:27:09.827Z,100085.39
2022-09-11T18:29:40.108Z,100086.33
2022-09-11T18:32:10.103Z,100086.15
2022-09-11T18:34:38.898Z,100088.13
2022-09-11T18:37:08.178Z,100086.72
2022-09-11T18:39:37.639Z,100086.67
2022-09-11T18:42:07.264Z,100084.41
2022-09-11T18:44:35.774Z,100057.33
2022-09-11T18:47:04.209Z,100093.14
2022-09-11T18:49:32.249Z,100095.30
2022-09-11T18:52:00.470Z,100098.05
2022-09-11T18:54:30.196Z,100103.30
2022-09-11T18:57:00.111Z,100106.02
2022-09-11T18:59:28.674Z,100106.57
2022-09-11T19:01:57.263Z,100104.59
2022-09-11T19:04:26.713Z,100101.02
2022-09-11T19:06:55.232Z,100099.64
2022-09-11T19:09:23.228Z,100101.55
2022-09-11T19:11:53.988Z,100084.02
2022-09-11T19:14:22.380Z,100101.49
2022-09-11T19:16:54.259Z,100103.27
2022-09-11T19:19:22.388Z,100069.74
2022-09-11T19:21:51.624Z,100083.91
2022-09-11T19:24:20.794Z,100103.02
2022-09-11T19:26:49.206Z,100107.11
2022-09-11T19:29:19.273Z,100106.38
2022-09-11T19:31:55.008Z,100108.52
2022-09-11T19:34:28.237Z,100095.33
2022-09-11T19:36:56.360Z,100109.96
2022-09-11T19:39:24.834Z,100114.25
2022-09-11T19:41:52.915Z,100113.77
2022-09-11T19:44:21.230Z,100120.10
2022-09-11T19:46:53.593Z,100118.94
2022-09-11T19:49:21.808Z,100122.59
2022-09-11T19:51:52.929Z,100122.08
2022-09-11T19:54:22.628Z,100120.28
2022-09-11T19:56:51.339Z,100122.52
2022-09-11T19:59:19.758Z,100117.74
2022-09-11T20:01:48.320Z,100122.13
2022-09-11T20:04:17.755Z,100120.23
2022-09-11T20:09:32.331Z,100124.78
2022-09-11T20:12:15.752Z,100118.86
2022-09-11T20:14:43.651Z,100121.75
2022-09-11T20:17:13.171Z,100124.45
2022-09-11T20:19:44.845Z,100126.39
2022-09-11T20:22:12.776Z,100125.21
2022-09-11T20:24:40.925Z,100131.59
2022-09-11T20:27:08.983Z,100129.49
2022-09-11T20:29:38.469Z,100125.02
2022-09-11T20:32:06.338Z,100133.63
2022-09-11T20:34:34.447Z,100134.11
2022-09-11T20:37:03.371Z,100131.70
2022-09-11T20:39:34.344Z,100129.58
2022-09-11T20:42:02.542Z,100128.93
2022-09-11T20:44:36.752Z,100122.67
2022-09-11T20:47:05.363Z,100132.93
2022-09-11T20:49:44.698Z,100115.61
2022-09-11T20:52:21.813Z,100131.85
2022-09-11T20:54:50.578Z,100131.75
2022-09-11T20:57:18.512Z,100130.67
2022-09-11T20:59:47.348Z,100130.61
2022-09-11T21:02:16.367Z,100128.09
2022-09-11T21:04:46.638Z,100126.92
2022-09-11T21:07:15.064Z,100131.27
2022-09-11T21:09:43.395Z,100127.34
2022-09-11T21:12:11.234Z,100132.48
2022-09-11T21:14:39.107Z,100135.42
2022-09-11T21:17:07.482Z,100132.11
2022-09-11T21:19:36.173Z,100133.48
2022-09-11T21:22:04.457Z,100133.27
2022-09-11T21:24:32.586Z,100135.11
2022-09-11T21:27:02.065Z,100134.58
2022-09-11T21:29:31.153Z,100133.71
2022-09-11T21:32:00.118Z,100129.90
2022-09-11T21:34:28.231Z,100132.11
2022-09-11T21:36:56.487Z,100134.19
2022-09-11T21:39:25.183Z,100132.24
2022-09-11T21:42:11.197Z,100140.23
2022-09-11T21:44:42.222Z,100145.10
2022-09-11T21:47:10.759Z,100149.43
2022-09-11T21:49:38.559Z,100150.07
2022-09-11T21:52:06.596Z,100150.71
2022-09-11T21:54:34.771Z,100148.47
2022-09-11T21:57:02.925Z,100149.91
2022-09-11T21:59:31.718Z,100152.30
2022-09-11T22:01:59.733Z,100153.66
2022-09-11T22:04:27.923Z,100155.12
2022-09-11T22:06:55.942Z,100154.47
2022-09-11T22:09:23.853Z,100153.99
2022-09-11T22:11:51.840Z,100155.21
2022-09-11T22:14:22.149Z,100156.95
2022-09-11T22:16:50.182Z,100152.66
2022-09-11T22:19:18.658Z,100156.77
2022-09-11T22:21:46.797Z,100162.65
2022-09-11T22:24:15.058Z,100157.64
2022-09-11T22:26:43.090Z,100160.92
2022-09-11T22:29:10.983Z,100160.98
2022-09-11T22:31:40.144Z,100160.86
2022-09-11T22:34:08.252Z,100164.35
2022-09-11T22:36:37.388Z,100163.73
2022-09-11T22:39:05.654Z,100167.46
2022-09-11T22:41:33.825Z,100164.71
2022-09-11T22:44:02.263Z,100161.84
2022-09-11T22:46:30.301Z,100163.63
2022-09-11T22:48:58.212Z,100164.98
2022-09-11T22:51:26.751Z,100164.54
2022-09-11T22:53:54.806Z,100163.71
2022-09-11T22:56:22.835Z,100167.83
2022-09-11T22:58:51.140Z,100168.34
2022-09-11T23:01:22.438Z,100153.16
2022-09-11T23:03:52.945Z,100167.78
2022-09-11T23:06:40.554Z,100169.14
2022-09-11T23:09:13.088Z,100172.73
2022-09-11T23:11:40.980Z,100154.69
2022-09-11T23:14:13.901Z,100175.23
2022-09-11T23:16:43.753Z,100171.71
2022-09-11T23:19:14.438Z,100173.39
2022-09-11T23:21:42.472Z,100173.64
2022-09-11T23:24:13.622Z,100174.02
2022-09-11T23:26:41.941Z,100171.64
2022-09-11T23:29:10.630Z,100174.27
2022-09-11T23:31:39.389Z,100170.53
2022-09-11T23:34:09.338Z,100177.41
2022-09-11T23:36:37.309Z,100175.48
2022-09-11T23:39:05.459Z,100174.17
2022-09-11T23:41:33.559Z,100179.18
2022-09-11T23:44:02.486Z,100175.45
2022-09-11T23:46:30.593Z,100180.94
2022-09-11T23:48:58.768Z,100180.73
2022-09-11T23:51:27.014Z,100176.78
2022-09-11T23:53:55.138Z,100175.13
2022-09-11T23:56:23.216Z,100180.65
2022-09-11T23:58:54.712Z,100179.14
